This is the latest recevied weather packets stored in our database for station/object DH5WR-10. If no packets are shown the sender has not sent any weather packets the latest 10 day(s).
| Time | Temp. | Humidity | Pressure | Rain* | Wind** | Luminosity | Snow |
|---|---|---|---|---|---|---|---|
| 1777351045 | 6.11° C | 64% | 1018.1 hPa | - | - | - | - |
| 1777350145 | 6.11° C | 63% | 1018 hPa | - | - | - | - |
| 1777349245 | 6.11° C | 62% | 1018.1 hPa | - | - | - | - |
| 1777348344 | 6.11° C | 60% | 1018 hPa | - | - | - | - |
| 1777347444 | 6.67° C | 59% | 1018 hPa | - | - | - | - |
| 1777346544 | 6.67° C | 58% | 1018.1 hPa | - | - | - | - |
| 1777345644 | 6.67° C | 58% | 1018.1 hPa | - | - | - | - |
| 1777344744 | 6.67° C | 58% | 1018.2 hPa | - | - | - | - |
| 1777343844 | 7.22° C | 56% | 1018.1 hPa | - | - | - | - |
| 1777342944 | 7.22° C | 56% | 1018.2 hPa | - | - | - | - |
| 1777342043 | 7.22° C | 54% | 1018.3 hPa | - | - | - | - |
| 1777341143 | 7.22° C | 55% | 1018.4 hPa | - | - | - | - |
| 1777340243 | 7.78° C | 52% | 1018.6 hPa | - | - | - | - |
| 1777339343 | 8.33° C | 51% | 1018.6 hPa | - | - | - | - |
| 1777338443 | 7.78° C | 52% | 1018.6 hPa | - | - | - | - |
| 1777337543 | 8.33° C | 52% | 1018.7 hPa | - | - | - | - |
| 1777336642 | 7.78° C | 52% | 1018.7 hPa | - | - | - | - |
| 1777335742 | 8.33° C | 50% | 1018.6 hPa | - | - | - | - |
| 1777334842 | 8.33° C | 52% | 1018.8 hPa | - | - | - | - |
| 1777333942 | 8.89° C | 49% | 1018.7 hPa | - | - | - | - |
| 1777333042 | 8.89° C | 49% | 1018.9 hPa | - | - | - | - |
| 1777332142 | 9.44° C | 48% | 1018.8 hPa | - | - | - | - |
| 1777331242 | 9.44° C | 46% | 1018.9 hPa | - | - | - | - |
| 1777330342 | 10° C | 44% | 1018.8 hPa | - | - | - | - |
| 1777329441 | 10° C | 44% | 1019 hPa | - | - | - | - |
* Rain since midnight (hover to see other rain measurements)
** Current wind speed in m/s (hover to see current wind gust speed)